Seaways 18 — J8B3887 — position and weather

sailwx.info

Track history (hours):
 
Tides and Currents Weather Stations Pressure Air Temp Water Temp Dewpoint Dewpoint Depression Visibility Wind Speed Wind Dir Waves Ship Positions

Seaways 18

Last reported at 2018-Feb-21 06:15 UTC. Time now 2018-Feb-23 04:23 UTC.
Position N 05°09' W 000°38'.

Length 34 m; draft 5.5 m.

Type: Tug. MMSI: 376874000.

Date/timePositionNaut miles runAvg speedWind from/ knotsBaromVisibWave heightAir tempDewpointWater temp
2018-Feb-21 06:15N 05°09' W 000°38'1 5.2
2018-Feb-21 05:58N 05°10' W 000°36'2 5.1
2018-Feb-21 05:30N 05°11' W 000°34'3 5.2
2018-Feb-21 05:00N 05°12' W 000°32'3 5.3
2018-Feb-21 04:30N 05°13' W 000°29'3 5.3
2018-Feb-21 04:00N 05°15' W 000°27'3 5.2
2018-Feb-21 03:30N 05°15' W 000°25'3 5.2
2018-Feb-21 03:00N 05°16' W 000°22'3 5.3
2018-Feb-21 02:31N 05°17' W 000°20'3 5.4
2018-Feb-21 02:00N 05°19' W 000°18'3 5.2
2018-Feb-21 01:30N 05°21' W 000°16'3 5.3
2018-Feb-21 01:00N 05°22' W 000°14'3 5.3
2018-Feb-21 00:30N 05°24' W 000°11'3 5.3
2018-Feb-21 00:00N 05°25' W 000°09'3 5.3
2018-Feb-20 23:30N 05°26' W 000°07'3 5.3
2018-Feb-20 23:00N 05°28' W 000°05'3 5.3
2018-Feb-20 22:30N 05°29' W 000°02'2 5.1
2018-Feb-20 22:00N 05°30' E 000°00'3 5.1
2018-Feb-20 21:30N 05°31' E 000°03'2 5.0
2018-Feb-20 21:01N 05°32' E 000°05'2 5.0
2018-Feb-20 20:30N 05°33' E 000°07'2 4.9
2018-Feb-20 20:00N 05°35' E 000°06'2 3.9
2018-Feb-20 19:30N 05°36' E 000°04'1 1.4
2018-Feb-20 19:00N 05°36' E 000°03'0 0.4
2018-Feb-20 18:29N 05°36' E 000°03'0 0.0
2018-Feb-20 18:00N 05°36' E 000°03'0 0.0
2018-Feb-20 17:28N 05°36' E 000°03'0 0.0
2018-Feb-20 16:56N 05°36' E 000°03'0 0.0
2018-Feb-20 16:27N 05°36' E 000°03'0 0.0
2018-Feb-20 15:55N 05°36' E 000°03'0 0.0
2018-Feb-20 15:30N 05°36' E 000°03'0 0.0
2018-Feb-20 14:58N 05°36' E 000°03'0 0.0
2018-Feb-20 14:28N 05°36' E 000°03'0 0.0
2018-Feb-20 14:01N 05°36' E 000°03'0 0.0
2018-Feb-20 13:30N 05°36' E 000°03'0 0.0
2018-Feb-20 12:57N 05°36' E 000°03'0 0.0
2018-Feb-20 12:30N 05°36' E 000°03'0 0.0
2018-Feb-20 11:58N 05°36' E 000°03'0 0.0
2018-Feb-20 11:30N 05°36' E 000°03'0 0.3
2018-Feb-20 11:00N 05°36' E 000°03'0 0.0
2018-Feb-20 10:30N 05°36' E 000°03'0 0.0
2018-Feb-20 10:00N 05°36' E 000°03'0 0.0
2018-Feb-20 09:30N 05°36' E 000°03'0 0.0
2018-Feb-20 09:00N 05°36' E 000°03'0 0.0
2018-Feb-20 08:30N 05°36' E 000°03'0 0.0
2018-Feb-20 08:00N 05°36' E 000°03'0 0.0
2018-Feb-20 07:30N 05°36' E 000°03'0 0.0
2018-Feb-20 06:59N 05°36' E 000°03'0 0.0
2018-Feb-20 06:29N 05°36' E 000°03'0 0.0
2018-Feb-20 05:50N 05°36' E 000°03'0 0.0
2018-Feb-20 05:30N 05°36' E 000°03'0 0.0
2018-Feb-20 05:01N 05°36' E 000°03'0 0.0
2018-Feb-20 04:23N 05°36' E 000°03'0 0.0
2018-Feb-20 04:00N 05°36' E 000°03'0 0.0
2018-Feb-20 03:29N 05°36' E 000°03'0 0.0
2018-Feb-20 02:59N 05°36' E 000°03'0 0.0
2018-Feb-20 02:23N 05°36' E 000°03'0 0.0
2018-Feb-20 02:00N 05°36' E 000°03'0 0.0
2018-Feb-20 01:29N 05°36' E 000°03'0 0.0
2018-Feb-20 01:00N 05°36' E 000°03'0 0.0
2018-Feb-20 00:27N 05°36' E 000°03'0 0.1
2018-Feb-20 00:01N 05°36' E 000°03'0 0.4
2018-Feb-19 23:30N 05°36' E 000°04'1 2.4
2018-Feb-19 23:01N 05°37' E 000°05'1 2.1
2018-Feb-19 22:30N 05°36' E 000°06'1 2.8
2018-Feb-19 22:00N 05°36' E 000°07'2 3.8
2018-Feb-19 21:30N 05°36' E 000°09'1 2.8
2018-Feb-19 21:00N 05°36' E 000°10'1 1.1
2018-Feb-19 20:30N 05°35' E 000°11'1 1.1
2018-Feb-19 20:00N 05°35' E 000°11'1 1.0
2018-Feb-19 19:30N 05°35' E 000°12'0 0.2
2018-Feb-19 19:00N 05°35' E 000°12'1 1.5
2018-Feb-19 18:29N 05°34' E 000°12'1 1.4
2018-Feb-19 18:01N 05°34' E 000°12'1 1.8
2018-Feb-19 17:30N 05°33' E 000°13'0 0.6
2018-Feb-19 17:00N 05°33' E 000°12'1 2.2
2018-Feb-19 16:31N 05°32' E 000°11'2 3.7
2018-Feb-19 16:00N 05°31' E 000°12'2 3.4
2018-Feb-19 15:30N 05°31' E 000°13'1 1.1
2018-Feb-19 15:00N 05°31' E 000°14'0 0.9
2018-Feb-19 14:30N 05°31' E 000°14'0 0.8
2018-Feb-19 14:00N 05°31' E 000°13'0 0.7
2018-Feb-19 13:29N 05°30' E 000°13'0 0.9
2018-Feb-19 13:00N 05°30' E 000°13'1 1.0
2018-Feb-19 12:29N 05°30' E 000°12'0 0.8
2018-Feb-19 12:00N 05°30' E 000°12'1 1.6
2018-Feb-19 11:30N 05°29' E 000°13'2 4.2
2018-Feb-19 11:00N 05°29' E 000°15'2 4.2
2018-Feb-19 10:30N 05°28' E 000°17'2 4.2
2018-Feb-19 09:57N 05°28' E 000°19'2 4.0
2018-Feb-19 09:30N 05°27' E 000°21'  
Track history (hours):
 
Tides and Currents Weather Stations Pressure Air Temp Water Temp Dewpoint Dewpoint Depression Visibility Wind Speed Wind Dir Waves Ship Positions

Seaways 18

Last reported at 2018-Feb-21 06:15 UTC. Time now 2018-Feb-23 04:23 UTC.
Position N 05°09' W 000°38'.

Length 34 m; draft 5.5 m.

Type: Tug. MMSI: 376874000.

Date/timePositionNaut miles runAvg speedWind from/ knotsBaromVisibWave heightAir tempDewpointWater temp
2018-Feb-21 06:15N 05°09' W 000°38'1 5.2
2018-Feb-21 05:58N 05°10' W 000°36'2 5.1
2018-Feb-21 05:30N 05°11' W 000°34'3 5.2
2018-Feb-21 05:00N 05°12' W 000°32'3 5.3
2018-Feb-21 04:30N 05°13' W 000°29'3 5.3
2018-Feb-21 04:00N 05°15' W 000°27'3 5.2
2018-Feb-21 03:30N 05°15' W 000°25'3 5.2
2018-Feb-21 03:00N 05°16' W 000°22'3 5.3
2018-Feb-21 02:31N 05°17' W 000°20'3 5.4
2018-Feb-21 02:00N 05°19' W 000°18'3 5.2
2018-Feb-21 01:30N 05°21' W 000°16'3 5.3
2018-Feb-21 01:00N 05°22' W 000°14'3 5.3
2018-Feb-21 00:30N 05°24' W 000°11'3 5.3
2018-Feb-21 00:00N 05°25' W 000°09'3 5.3
2018-Feb-20 23:30N 05°26' W 000°07'3 5.3
2018-Feb-20 23:00N 05°28' W 000°05'3 5.3
2018-Feb-20 22:30N 05°29' W 000°02'2 5.1
2018-Feb-20 22:00N 05°30' E 000°00'3 5.1
2018-Feb-20 21:30N 05°31' E 000°03'2 5.0
2018-Feb-20 21:01N 05°32' E 000°05'2 5.0
2018-Feb-20 20:30N 05°33' E 000°07'2 4.9
2018-Feb-20 20:00N 05°35' E 000°06'2 3.9
2018-Feb-20 19:30N 05°36' E 000°04'1 1.4
2018-Feb-20 19:00N 05°36' E 000°03'0 0.4
2018-Feb-20 18:29N 05°36' E 000°03'0 0.0
2018-Feb-20 18:00N 05°36' E 000°03'0 0.0
2018-Feb-20 17:28N 05°36' E 000°03'0 0.0
2018-Feb-20 16:56N 05°36' E 000°03'0 0.0
2018-Feb-20 16:27N 05°36' E 000°03'0 0.0
2018-Feb-20 15:55N 05°36' E 000°03'0 0.0
2018-Feb-20 15:30N 05°36' E 000°03'0 0.0
2018-Feb-20 14:58N 05°36' E 000°03'0 0.0
2018-Feb-20 14:28N 05°36' E 000°03'0 0.0
2018-Feb-20 14:01N 05°36' E 000°03'0 0.0
2018-Feb-20 13:30N 05°36' E 000°03'0 0.0
2018-Feb-20 12:57N 05°36' E 000°03'0 0.0
2018-Feb-20 12:30N 05°36' E 000°03'0 0.0
2018-Feb-20 11:58N 05°36' E 000°03'0 0.0
2018-Feb-20 11:30N 05°36' E 000°03'0 0.3
2018-Feb-20 11:00N 05°36' E 000°03'0 0.0
2018-Feb-20 10:30N 05°36' E 000°03'0 0.0
2018-Feb-20 10:00N 05°36' E 000°03'0 0.0
2018-Feb-20 09:30N 05°36' E 000°03'0 0.0
2018-Feb-20 09:00N 05°36' E 000°03'0 0.0
2018-Feb-20 08:30N 05°36' E 000°03'0 0.0
2018-Feb-20 08:00N 05°36' E 000°03'0 0.0
2018-Feb-20 07:30N 05°36' E 000°03'0 0.0
2018-Feb-20 06:59N 05°36' E 000°03'0 0.0
2018-Feb-20 06:29N 05°36' E 000°03'0 0.0
2018-Feb-20 05:50N 05°36' E 000°03'0 0.0
2018-Feb-20 05:30N 05°36' E 000°03'0 0.0
2018-Feb-20 05:01N 05°36' E 000°03'0 0.0
2018-Feb-20 04:23N 05°36' E 000°03'0 0.0
2018-Feb-20 04:00N 05°36' E 000°03'0 0.0
2018-Feb-20 03:29N 05°36' E 000°03'0 0.0
2018-Feb-20 02:59N 05°36' E 000°03'0 0.0
2018-Feb-20 02:23N 05°36' E 000°03'0 0.0
2018-Feb-20 02:00N 05°36' E 000°03'0 0.0
2018-Feb-20 01:29N 05°36' E 000°03'0 0.0
2018-Feb-20 01:00N 05°36' E 000°03'0 0.0
2018-Feb-20 00:27N 05°36' E 000°03'0 0.1
2018-Feb-20 00:01N 05°36' E 000°03'0 0.4
2018-Feb-19 23:30N 05°36' E 000°04'1 2.4
2018-Feb-19 23:01N 05°37' E 000°05'1 2.1
2018-Feb-19 22:30N 05°36' E 000°06'1 2.8
2018-Feb-19 22:00N 05°36' E 000°07'2 3.8
2018-Feb-19 21:30N 05°36' E 000°09'1 2.8
2018-Feb-19 21:00N 05°36' E 000°10'1 1.1
2018-Feb-19 20:30N 05°35' E 000°11'1 1.1
2018-Feb-19 20:00N 05°35' E 000°11'1 1.0
2018-Feb-19 19:30N 05°35' E 000°12'0 0.2
2018-Feb-19 19:00N 05°35' E 000°12'1 1.5
2018-Feb-19 18:29N 05°34' E 000°12'1 1.4
2018-Feb-19 18:01N 05°34' E 000°12'1 1.8
2018-Feb-19 17:30N 05°33' E 000°13'0 0.6
2018-Feb-19 17:00N 05°33' E 000°12'1 2.2
2018-Feb-19 16:31N 05°32' E 000°11'2 3.7
2018-Feb-19 16:00N 05°31' E 000°12'2 3.4
2018-Feb-19 15:30N 05°31' E 000°13'1 1.1
2018-Feb-19 15:00N 05°31' E 000°14'0 0.9
2018-Feb-19 14:30N 05°31' E 000°14'0 0.8
2018-Feb-19 14:00N 05°31' E 000°13'0 0.7
2018-Feb-19 13:29N 05°30' E 000°13'0 0.9
2018-Feb-19 13:00N 05°30' E 000°13'1 1.0
2018-Feb-19 12:29N 05°30' E 000°12'0 0.8
2018-Feb-19 12:00N 05°30' E 000°12'1 1.6
2018-Feb-19 11:30N 05°29' E 000°13'2 4.2
2018-Feb-19 11:00N 05°29' E 000°15'2 4.2
2018-Feb-19 10:30N 05°28' E 000°17'2 4.2
2018-Feb-19 09:57N 05°28' E 000°19'2 4.0
2018-Feb-19 09:30N 05°27' E 000°21'  

Dump ship's entire track history